sensor_id;sensor_type;location;lat;lon;timestamp;temperature;humidity
21861;DHT22;11095;48.066;8.540;2023-04-25T00:01:22;6.30;99.90
21861;DHT22;11095;48.066;8.540;2023-04-25T00:03:48;6.30;99.90
21861;DHT22;11095;48.066;8.540;2023-04-25T00:06:14;6.30;99.90
21861;DHT22;11095;48.066;8.540;2023-04-25T00:08:40;6.20;99.90
21861;DHT22;11095;48.066;8.540;2023-04-25T00:11:05;6.20;99.90
21861;DHT22;11095;48.066;8.540;2023-04-25T00:13:31;6.10;99.90
21861;DHT22;11095;48.066;8.540;2023-04-25T00:15:57;6.10;99.90
21861;DHT22;11095;48.066;8.540;2023-04-25T00:18:24;6.10;99.90
21861;DHT22;11095;48.066;8.540;2023-04-25T00:20:50;6.10;99.90
21861;DHT22;11095;48.066;8.540;2023-04-25T00:23:16;6.00;99.90
21861;DHT22;11095;48.066;8.540;2023-04-25T00:25:45;6.00;99.90
21861;DHT22;11095;48.066;8.540;2023-04-25T00:28:12;5.90;99.90
21861;DHT22;11095;48.066;8.540;2023-04-25T00:30:38;5.90;99.90
21861;DHT22;11095;48.066;8.540;2023-04-25T00:33:04;5.80;99.90
21861;DHT22;11095;48.066;8.540;2023-04-25T00:35:30;5.70;99.90
21861;DHT22;11095;48.066;8.540;2023-04-25T00:37:56;5.70;99.90
21861;DHT22;11095;48.066;8.540;2023-04-25T00:40:22;5.70;99.90
21861;DHT22;11095;48.066;8.540;2023-04-25T00:42:48;5.70;99.90
21861;DHT22;11095;48.066;8.540;2023-04-25T00:45:14;5.60;99.90
21861;DHT22;11095;48.066;8.540;2023-04-25T00:47:41;5.60;99.90
21861;DHT22;11095;48.066;8.540;2023-04-25T00:50:08;5.60;99.90
21861;DHT22;11095;48.066;8.540;2023-04-25T00:52:34;5.60;99.90
21861;DHT22;11095;48.066;8.540;2023-04-25T00:55:00;5.60;99.90
21861;DHT22;11095;48.066;8.540;2023-04-25T00:57:26;5.60;99.90
21861;DHT22;11095;48.066;8.540;2023-04-25T00:59:53;5.50;99.90
21861;DHT22;11095;48.066;8.540;2023-04-25T01:02:20;5.50;99.90
21861;DHT22;11095;48.066;8.540;2023-04-25T01:04:47;5.50;99.90
21861;DHT22;11095;48.066;8.540;2023-04-25T01:07:12;5.50;99.90
21861;DHT22;11095;48.066;8.540;2023-04-25T01:09:39;5.50;99.90
21861;DHT22;11095;48.066;8.540;2023-04-25T01:12:05;5.50;99.90
21861;DHT22;11095;48.066;8.540;2023-04-25T01:14:31;5.50;99.90
21861;DHT22;11095;48.066;8.540;2023-04-25T01:16:56;5.40;99.90
21861;DHT22;11095;48.066;8.540;2023-04-25T01:19:23;5.40;99.90
21861;DHT22;11095;48.066;8.540;2023-04-25T01:21:50;5.30;99.90
21861;DHT22;11095;48.066;8.540;2023-04-25T01:24:16;5.30;99.90
21861;DHT22;11095;48.066;8.540;2023-04-25T01:26:43;5.30;99.90
21861;DHT22;11095;48.066;8.540;2023-04-25T01:29:19;5.20;99.90
21861;DHT22;11095;48.066;8.540;2023-04-25T01:31:46;5.20;99.90
21861;DHT22;11095;48.066;8.540;2023-04-25T01:34:12;5.10;99.90
21861;DHT22;11095;48.066;8.540;2023-04-25T01:36:38;5.10;99.90
21861;DHT22;11095;48.066;8.540;2023-04-25T01:39:04;5.00;99.90
21861;DHT22;11095;48.066;8.540;2023-04-25T01:41:30;5.00;99.90
21861;DHT22;11095;48.066;8.540;2023-04-25T01:43:57;5.00;99.90
21861;DHT22;11095;48.066;8.540;2023-04-25T01:46:22;4.90;99.90
21861;DHT22;11095;48.066;8.540;2023-04-25T01:48:48;4.90;99.90
21861;DHT22;11095;48.066;8.540;2023-04-25T01:51:14;4.90;99.90
21861;DHT22;11095;48.066;8.540;2023-04-25T01:53:41;4.80;99.90
21861;DHT22;11095;48.066;8.540;2023-04-25T01:56:07;4.80;99.90
21861;DHT22;11095;48.066;8.540;2023-04-25T01:58:33;4.80;99.90
21861;DHT22;11095;48.066;8.540;2023-04-25T02:00:59;4.80;99.90
21861;DHT22;11095;48.066;8.540;2023-04-25T02:03:25;4.80;99.90
21861;DHT22;11095;48.066;8.540;2023-04-25T02:05:51;4.80;99.90
21861;DHT22;11095;48.066;8.540;2023-04-25T02:08:17;4.70;99.90
21861;DHT22;11095;48.066;8.540;2023-04-25T02:10:43;4.70;99.90
21861;DHT22;11095;48.066;8.540;2023-04-25T02:13:09;4.60;99.90
21861;DHT22;11095;48.066;8.540;2023-04-25T02:15:34;4.60;99.90
21861;DHT22;11095;48.066;8.540;2023-04-25T02:18:00;4.60;99.90
21861;DHT22;11095;48.066;8.540;2023-04-25T02:20:28;4.60;99.90
21861;DHT22;11095;48.066;8.540;2023-04-25T02:22:54;4.60;99.90
21861;DHT22;11095;48.066;8.540;2023-04-25T02:25:20;4.60;99.90
21861;DHT22;11095;48.066;8.540;2023-04-25T02:27:46;4.60;99.90
21861;DHT22;11095;48.066;8.540;2023-04-25T02:30:12;4.60;99.90
21861;DHT22;11095;48.066;8.540;2023-04-25T02:32:39;4.60;99.90
21861;DHT22;11095;48.066;8.540;2023-04-25T02:35:05;4.60;99.90
21861;DHT22;11095;48.066;8.540;2023-04-25T02:37:32;4.60;99.90
21861;DHT22;11095;48.066;8.540;2023-04-25T02:39:58;4.60;99.90
21861;DHT22;11095;48.066;8.540;2023-04-25T02:42:23;4.50;99.90
21861;DHT22;11095;48.066;8.540;2023-04-25T02:44:49;4.50;99.90
21861;DHT22;11095;48.066;8.540;2023-04-25T02:47:15;4.40;99.90
21861;DHT22;11095;48.066;8.540;2023-04-25T02:49:41;4.30;99.90
21861;DHT22;11095;48.066;8.540;2023-04-25T02:52:07;4.30;99.90
21861;DHT22;11095;48.066;8.540;2023-04-25T02:54:32;4.20;99.90
21861;DHT22;11095;48.066;8.540;2023-04-25T02:56:58;4.10;99.90
21861;DHT22;11095;48.066;8.540;2023-04-25T02:59:23;4.00;99.90
21861;DHT22;11095;48.066;8.540;2023-04-25T03:01:49;4.00;99.90
21861;DHT22;11095;48.066;8.540;2023-04-25T03:04:15;3.90;99.90
21861;DHT22;11095;48.066;8.540;2023-04-25T03:06:40;3.90;99.90
21861;DHT22;11095;48.066;8.540;2023-04-25T03:09:06;3.80;99.90
21861;DHT22;11095;48.066;8.540;2023-04-25T03:11:32;3.70;99.90
21861;DHT22;11095;48.066;8.540;2023-04-25T03:13:58;3.70;99.90
21861;DHT22;11095;48.066;8.540;2023-04-25T03:16:24;3.70;99.90
21861;DHT22;11095;48.066;8.540;2023-04-25T03:18:49;3.60;99.90
21861;DHT22;11095;48.066;8.540;2023-04-25T03:21:16;3.60;99.90
21861;DHT22;11095;48.066;8.540;2023-04-25T03:23:42;3.50;99.90
21861;DHT22;11095;48.066;8.540;2023-04-25T03:26:08;3.50;99.90
21861;DHT22;11095;48.066;8.540;2023-04-25T03:28:33;3.40;99.90
21861;DHT22;11095;48.066;8.540;2023-04-25T03:30:59;3.40;99.90
21861;DHT22;11095;48.066;8.540;2023-04-25T03:33:25;3.40;99.90
21861;DHT22;11095;48.066;8.540;2023-04-25T03:35:51;3.30;99.90
21861;DHT22;11095;48.066;8.540;2023-04-25T03:38:17;3.30;99.90
21861;DHT22;11095;48.066;8.540;2023-04-25T03:40:43;3.30;99.90
21861;DHT22;11095;48.066;8.540;2023-04-25T03:43:08;3.20;99.90
21861;DHT22;11095;48.066;8.540;2023-04-25T03:45:34;3.20;99.90
21861;DHT22;11095;48.066;8.540;2023-04-25T03:48:00;3.10;99.90
21861;DHT22;11095;48.066;8.540;2023-04-25T03:50:25;3.10;99.90
21861;DHT22;11095;48.066;8.540;2023-04-25T03:52:51;3.10;99.90
21861;DHT22;11095;48.066;8.540;2023-04-25T03:55:17;3.10;99.90
21861;DHT22;11095;48.066;8.540;2023-04-25T03:57:43;3.10;99.90
21861;DHT22;11095;48.066;8.540;2023-04-25T04:00:09;3.20;99.90
21861;DHT22;11095;48.066;8.540;2023-04-25T04:02:35;3.20;99.90
21861;DHT22;11095;48.066;8.540;2023-04-25T04:05:02;3.20;99.90
21861;DHT22;11095;48.066;8.540;2023-04-25T04:07:28;3.20;99.90
21861;DHT22;11095;48.066;8.540;2023-04-25T04:09:53;3.30;99.90
21861;DHT22;11095;48.066;8.540;2023-04-25T04:12:19;3.30;99.90
21861;DHT22;11095;48.066;8.540;2023-04-25T04:14:45;3.30;99.90
21861;DHT22;11095;48.066;8.540;2023-04-25T04:17:10;3.30;99.90
21861;DHT22;11095;48.066;8.540;2023-04-25T04:19:36;3.30;99.90
21861;DHT22;11095;48.066;8.540;2023-04-25T04:22:03;3.40;99.90
21861;DHT22;11095;48.066;8.540;2023-04-25T04:24:28;3.40;99.90
21861;DHT22;11095;48.066;8.540;2023-04-25T04:26:54;3.50;99.90
21861;DHT22;11095;48.066;8.540;2023-04-25T04:29:20;3.50;99.90
21861;DHT22;11095;48.066;8.540;2023-04-25T04:31:50;3.60;99.90
21861;DHT22;11095;48.066;8.540;2023-04-25T04:34:16;3.60;99.90
21861;DHT22;11095;48.066;8.540;2023-04-25T04:36:44;3.70;99.90
21861;DHT22;11095;48.066;8.540;2023-04-25T04:39:12;3.80;99.90
21861;DHT22;11095;48.066;8.540;2023-04-25T04:41:38;3.90;99.90
21861;DHT22;11095;48.066;8.540;2023-04-25T04:44:04;4.10;99.90
21861;DHT22;11095;48.066;8.540;2023-04-25T04:46:29;4.60;99.90
21861;DHT22;11095;48.066;8.540;2023-04-25T04:48:56;4.80;99.90
21861;DHT22;11095;48.066;8.540;2023-04-25T04:51:22;4.90;99.90
21861;DHT22;11095;48.066;8.540;2023-04-25T04:53:48;5.00;99.90
21861;DHT22;11095;48.066;8.540;2023-04-25T04:56:13;4.90;99.90
21861;DHT22;11095;48.066;8.540;2023-04-25T04:58:39;4.90;99.90
21861;DHT22;11095;48.066;8.540;2023-04-25T05:01:05;4.80;99.90
21861;DHT22;11095;48.066;8.540;2023-04-25T05:03:31;4.70;99.90
21861;DHT22;11095;48.066;8.540;2023-04-25T05:05:57;4.60;99.90
21861;DHT22;11095;48.066;8.540;2023-04-25T05:08:22;4.60;99.90
21861;DHT22;11095;48.066;8.540;2023-04-25T05:10:48;4.60;99.90
21861;DHT22;11095;48.066;8.540;2023-04-25T05:13:13;4.60;99.90
21861;DHT22;11095;48.066;8.540;2023-04-25T05:15:39;4.60;99.90
21861;DHT22;11095;48.066;8.540;2023-04-25T05:18:05;4.70;99.90
21861;DHT22;11095;48.066;8.540;2023-04-25T05:20:30;4.70;99.90
21861;DHT22;11095;48.066;8.540;2023-04-25T05:22:56;4.80;99.90
21861;DHT22;11095;48.066;8.540;2023-04-25T05:25:22;4.90;99.90
21861;DHT22;11095;48.066;8.540;2023-04-25T05:27:47;5.00;99.90
21861;DHT22;11095;48.066;8.540;2023-04-25T05:30:13;5.10;99.90
21861;DHT22;11095;48.066;8.540;2023-04-25T05:32:39;5.20;99.90
21861;DHT22;11095;48.066;8.540;2023-04-25T05:35:06;5.40;99.90
21861;DHT22;11095;48.066;8.540;2023-04-25T05:37:32;5.40;99.90
21861;DHT22;11095;48.066;8.540;2023-04-25T05:39:58;5.50;99.90
21861;DHT22;11095;48.066;8.540;2023-04-25T05:42:23;5.50;99.90
21861;DHT22;11095;48.066;8.540;2023-04-25T05:44:49;5.50;99.90
21861;DHT22;11095;48.066;8.540;2023-04-25T05:47:14;5.50;99.90
21861;DHT22;11095;48.066;8.540;2023-04-25T05:49:40;5.50;99.90
21861;DHT22;11095;48.066;8.540;2023-04-25T05:52:06;5.50;99.90
21861;DHT22;11095;48.066;8.540;2023-04-25T05:54:31;5.50;99.90
21861;DHT22;11095;48.066;8.540;2023-04-25T05:56:57;5.60;99.90
21861;DHT22;11095;48.066;8.540;2023-04-25T05:59:23;5.60;99.90
21861;DHT22;11095;48.066;8.540;2023-04-25T06:01:49;5.70;99.90
21861;DHT22;11095;48.066;8.540;2023-04-25T06:04:14;5.70;99.90
21861;DHT22;11095;48.066;8.540;2023-04-25T06:06:40;5.80;99.90
21861;DHT22;11095;48.066;8.540;2023-04-25T06:09:06;5.80;99.90
21861;DHT22;11095;48.066;8.540;2023-04-25T06:11:31;5.80;99.90
21861;DHT22;11095;48.066;8.540;2023-04-25T06:13:57;5.80;99.90
21861;DHT22;11095;48.066;8.540;2023-04-25T06:16:23;5.80;99.90
21861;DHT22;11095;48.066;8.540;2023-04-25T06:18:51;5.80;99.90
21861;DHT22;11095;48.066;8.540;2023-04-25T06:21:16;5.80;99.90
21861;DHT22;11095;48.066;8.540;2023-04-25T06:23:42;5.70;99.90
21861;DHT22;11095;48.066;8.540;2023-04-25T06:26:07;5.70;99.90
21861;DHT22;11095;48.066;8.540;2023-04-25T06:28:33;5.70;99.90
21861;DHT22;11095;48.066;8.540;2023-04-25T06:30:59;5.70;99.90
21861;DHT22;11095;48.066;8.540;2023-04-25T06:33:24;5.60;99.90
21861;DHT22;11095;48.066;8.540;2023-04-25T06:35:50;5.60;99.90
21861;DHT22;11095;48.066;8.540;2023-04-25T06:38:16;5.60;99.90
21861;DHT22;11095;48.066;8.540;2023-04-25T06:40:41;5.60;99.90
21861;DHT22;11095;48.066;8.540;2023-04-25T06:43:07;5.60;99.90
21861;DHT22;11095;48.066;8.540;2023-04-25T06:45:33;5.60;99.90
21861;DHT22;11095;48.066;8.540;2023-04-25T06:47:58;5.60;99.90
21861;DHT22;11095;48.066;8.540;2023-04-25T06:50:24;5.50;99.90
21861;DHT22;11095;48.066;8.540;2023-04-25T06:52:50;5.60;99.90
21861;DHT22;11095;48.066;8.540;2023-04-25T06:55:15;5.50;99.90
21861;DHT22;11095;48.066;8.540;2023-04-25T06:57:41;5.50;99.90
21861;DHT22;11095;48.066;8.540;2023-04-25T07:00:07;5.50;99.90
21861;DHT22;11095;48.066;8.540;2023-04-25T07:02:36;5.40;99.90
21861;DHT22;11095;48.066;8.540;2023-04-25T07:05:03;5.40;99.90
21861;DHT22;11095;48.066;8.540;2023-04-25T07:07:30;5.40;99.90
21861;DHT22;11095;48.066;8.540;2023-04-25T07:09:56;5.40;99.90
21861;DHT22;11095;48.066;8.540;2023-04-25T07:12:22;5.30;99.90
21861;DHT22;11095;48.066;8.540;2023-04-25T07:14:47;5.30;99.90
21861;DHT22;11095;48.066;8.540;2023-04-25T07:17:13;5.10;99.90
21861;DHT22;11095;48.066;8.540;2023-04-25T07:19:38;5.00;99.90
21861;DHT22;11095;48.066;8.540;2023-04-25T07:22:05;4.90;99.90
21861;DHT22;11095;48.066;8.540;2023-04-25T07:24:31;4.80;99.90
21861;DHT22;11095;48.066;8.540;2023-04-25T07:26:57;4.80;99.90
21861;DHT22;11095;48.066;8.540;2023-04-25T07:29:23;4.70;99.90
21861;DHT22;11095;48.066;8.540;2023-04-25T07:31:49;4.60;99.90
21861;DHT22;11095;48.066;8.540;2023-04-25T07:34:15;4.50;99.90
21861;DHT22;11095;48.066;8.540;2023-04-25T07:36:41;4.40;99.90
21861;DHT22;11095;48.066;8.540;2023-04-25T07:39:07;4.30;99.90
21861;DHT22;11095;48.066;8.540;2023-04-25T07:41:34;4.20;99.90
21861;DHT22;11095;48.066;8.540;2023-04-25T07:44:00;4.20;99.90
21861;DHT22;11095;48.066;8.540;2023-04-25T07:46:25;4.20;99.90
21861;DHT22;11095;48.066;8.540;2023-04-25T07:48:51;4.20;99.90
21861;DHT22;11095;48.066;8.540;2023-04-25T07:51:17;4.20;99.90
21861;DHT22;11095;48.066;8.540;2023-04-25T07:53:45;4.20;99.90
21861;DHT22;11095;48.066;8.540;2023-04-25T07:56:11;4.20;99.90
21861;DHT22;11095;48.066;8.540;2023-04-25T07:58:36;4.20;99.90
21861;DHT22;11095;48.066;8.540;2023-04-25T08:01:02;4.30;99.90
21861;DHT22;11095;48.066;8.540;2023-04-25T08:03:28;4.30;99.90
21861;DHT22;11095;48.066;8.540;2023-04-25T08:05:54;4.20;99.90
21861;DHT22;11095;48.066;8.540;2023-04-25T08:08:20;4.20;99.90
21861;DHT22;11095;48.066;8.540;2023-04-25T08:10:45;4.10;99.90
21861;DHT22;11095;48.066;8.540;2023-04-25T08:13:11;4.20;99.90
21861;DHT22;11095;48.066;8.540;2023-04-25T08:15:37;4.20;99.90
21861;DHT22;11095;48.066;8.540;2023-04-25T08:18:03;4.10;99.90
21861;DHT22;11095;48.066;8.540;2023-04-25T08:20:28;4.20;99.90
21861;DHT22;11095;48.066;8.540;2023-04-25T08:22:54;4.20;99.90
21861;DHT22;11095;48.066;8.540;2023-04-25T08:25:20;4.20;99.90
21861;DHT22;11095;48.066;8.540;2023-04-25T08:27:46;4.30;99.90
21861;DHT22;11095;48.066;8.540;2023-04-25T08:30:12;4.50;99.90
21861;DHT22;11095;48.066;8.540;2023-04-25T08:32:37;4.70;99.90
21861;DHT22;11095;48.066;8.540;2023-04-25T08:35:04;4.80;99.90
21861;DHT22;11095;48.066;8.540;2023-04-25T08:37:30;4.90;99.90
21861;DHT22;11095;48.066;8.540;2023-04-25T08:39:56;5.00;99.90
21861;DHT22;11095;48.066;8.540;2023-04-25T08:42:22;5.00;99.90
21861;DHT22;11095;48.066;8.540;2023-04-25T08:44:48;5.10;99.90
21861;DHT22;11095;48.066;8.540;2023-04-25T08:47:14;5.20;99.90
21861;DHT22;11095;48.066;8.540;2023-04-25T08:49:45;5.30;99.90
21861;DHT22;11095;48.066;8.540;2023-04-25T08:52:13;5.30;99.90
21861;DHT22;11095;48.066;8.540;2023-04-25T08:54:43;5.50;99.90
21861;DHT22;11095;48.066;8.540;2023-04-25T08:57:09;5.60;99.90
21861;DHT22;11095;48.066;8.540;2023-04-25T08:59:35;5.70;99.90
21861;DHT22;11095;48.066;8.540;2023-04-25T09:02:03;5.70;99.90
21861;DHT22;11095;48.066;8.540;2023-04-25T09:04:31;5.90;99.90
21861;DHT22;11095;48.066;8.540;2023-04-25T09:06:56;6.00;99.90
21861;DHT22;11095;48.066;8.540;2023-04-25T09:09:23;6.10;99.90
21861;DHT22;11095;48.066;8.540;2023-04-25T09:11:49;6.20;99.90
21861;DHT22;11095;48.066;8.540;2023-04-25T09:14:20;6.20;99.90
21861;DHT22;11095;48.066;8.540;2023-04-25T09:19:23;6.40;99.90
21861;DHT22;11095;48.066;8.540;2023-04-25T09:21:49;6.50;99.90
21861;DHT22;11095;48.066;8.540;2023-04-25T09:24:15;6.60;99.90
21861;DHT22;11095;48.066;8.540;2023-04-25T09:26:41;6.70;99.90
21861;DHT22;11095;48.066;8.540;2023-04-25T09:29:07;6.80;99.90
21861;DHT22;11095;48.066;8.540;2023-04-25T09:31:33;6.80;99.90
21861;DHT22;11095;48.066;8.540;2023-04-25T09:34:00;6.80;99.90
21861;DHT22;11095;48.066;8.540;2023-04-25T09:36:29;6.90;99.90
21861;DHT22;11095;48.066;8.540;2023-04-25T09:38:55;7.00;99.90
21861;DHT22;11095;48.066;8.540;2023-04-25T09:41:25;7.10;99.90
21861;DHT22;11095;48.066;8.540;2023-04-25T09:43:50;7.30;99.90
21861;DHT22;11095;48.066;8.540;2023-04-25T09:46:16;7.40;99.90
21861;DHT22;11095;48.066;8.540;2023-04-25T09:48:50;7.50;99.90
21861;DHT22;11095;48.066;8.540;2023-04-25T09:51:16;7.60;99.90
21861;DHT22;11095;48.066;8.540;2023-04-25T09:53:44;7.60;99.90
21861;DHT22;11095;48.066;8.540;2023-04-25T09:56:12;7.80;99.90
21861;DHT22;11095;48.066;8.540;2023-04-25T09:58:39;8.20;99.90
21861;DHT22;11095;48.066;8.540;2023-04-25T10:01:07;8.80;99.90
21861;DHT22;11095;48.066;8.540;2023-04-25T10:03:35;9.70;99.90
21861;DHT22;11095;48.066;8.540;2023-04-25T10:06:02;10.50;99.90
21861;DHT22;11095;48.066;8.540;2023-04-25T10:08:34;10.90;99.90
21861;DHT22;11095;48.066;8.540;2023-04-25T10:11:02;11.30;99.90
21861;DHT22;11095;48.066;8.540;2023-04-25T10:13:29;11.30;99.90
21861;DHT22;11095;48.066;8.540;2023-04-25T10:16:01;11.80;99.90
21861;DHT22;11095;48.066;8.540;2023-04-25T10:18:28;12.40;99.90
21861;DHT22;11095;48.066;8.540;2023-04-25T10:21:05;12.80;99.90
21861;DHT22;11095;48.066;8.540;2023-04-25T10:23:32;12.90;99.90
21861;DHT22;11095;48.066;8.540;2023-04-25T10:26:00;12.80;99.90
21861;DHT22;11095;48.066;8.540;2023-04-25T10:28:26;12.50;99.90
21861;DHT22;11095;48.066;8.540;2023-04-25T10:31:07;11.90;99.90
21861;DHT22;11095;48.066;8.540;2023-04-25T10:33:37;11.90;99.90
21861;DHT22;11095;48.066;8.540;2023-04-25T10:36:14;11.70;99.90
21861;DHT22;11095;48.066;8.540;2023-04-25T10:38:42;11.60;99.90
21861;DHT22;11095;48.066;8.540;2023-04-25T10:41:09;11.40;99.90
21861;DHT22;11095;48.066;8.540;2023-04-25T10:43:40;11.30;99.90
21861;DHT22;11095;48.066;8.540;2023-04-25T10:51:23;11.20;99.90
21861;DHT22;11095;48.066;8.540;2023-04-25T10:54:08;11.10;99.90
21861;DHT22;11095;48.066;8.540;2023-04-25T10:56:37;11.00;99.90
21861;DHT22;11095;48.066;8.540;2023-04-25T10:59:13;11.10;99.90
21861;DHT22;11095;48.066;8.540;2023-04-25T11:01:43;11.20;99.90
21861;DHT22;11095;48.066;8.540;2023-04-25T11:04:28;11.60;99.90
21861;DHT22;11095;48.066;8.540;2023-04-25T11:09:25;11.80;99.90
21861;DHT22;11095;48.066;8.540;2023-04-25T11:11:57;11.70;99.90
21861;DHT22;11095;48.066;8.540;2023-04-25T11:14:24;11.20;99.90
21861;DHT22;11095;48.066;8.540;2023-04-25T11:16:53;11.30;99.90
21861;DHT22;11095;48.066;8.540;2023-04-25T11:19:21;11.60;99.90
21861;DHT22;11095;48.066;8.540;2023-04-25T11:21:46;12.00;99.90
21861;DHT22;11095;48.066;8.540;2023-04-25T11:24:12;12.20;99.90
21861;DHT22;11095;48.066;8.540;2023-04-25T11:26:38;12.10;99.90
21861;DHT22;11095;48.066;8.540;2023-04-25T11:29:03;11.70;99.90
21861;DHT22;11095;48.066;8.540;2023-04-25T11:31:29;11.20;99.90
21861;DHT22;11095;48.066;8.540;2023-04-25T11:33:58;11.10;99.90
21861;DHT22;11095;48.066;8.540;2023-04-25T11:36:25;11.00;99.90
21861;DHT22;11095;48.066;8.540;2023-04-25T11:38:52;11.20;99.90
21861;DHT22;11095;48.066;8.540;2023-04-25T11:41:21;11.50;99.90
21861;DHT22;11095;48.066;8.540;2023-04-25T11:43:48;11.90;99.90
21861;DHT22;11095;48.066;8.540;2023-04-25T11:46:15;12.10;99.90
21861;DHT22;11095;48.066;8.540;2023-04-25T11:48:42;12.30;99.90
21861;DHT22;11095;48.066;8.540;2023-04-25T11:51:08;12.40;99.90
21861;DHT22;11095;48.066;8.540;2023-04-25T11:53:34;12.40;99.90
21861;DHT22;11095;48.066;8.540;2023-04-25T11:55:59;12.40;99.90
21861;DHT22;11095;48.066;8.540;2023-04-25T11:58:26;12.40;99.90
21861;DHT22;11095;48.066;8.540;2023-04-25T12:00:52;12.50;99.90
21861;DHT22;11095;48.066;8.540;2023-04-25T12:03:18;12.80;99.90
21861;DHT22;11095;48.066;8.540;2023-04-25T12:05:45;13.00;99.90
21861;DHT22;11095;48.066;8.540;2023-04-25T12:08:14;12.80;99.90
21861;DHT22;11095;48.066;8.540;2023-04-25T12:10:44;12.70;99.90
21861;DHT22;11095;48.066;8.540;2023-04-25T12:13:24;12.50;99.90
21861;DHT22;11095;48.066;8.540;2023-04-25T12:15:50;12.50;99.90
21861;DHT22;11095;48.066;8.540;2023-04-25T12:18:28;12.20;99.90
21861;DHT22;11095;48.066;8.540;2023-04-25T12:20:54;12.30;99.90
21861;DHT22;11095;48.066;8.540;2023-04-25T12:23:27;12.40;99.90
21861;DHT22;11095;48.066;8.540;2023-04-25T12:25:53;12.40;99.90
21861;DHT22;11095;48.066;8.540;2023-04-25T12:28:21;12.10;99.90
21861;DHT22;11095;48.066;8.540;2023-04-25T12:30:52;11.80;99.90
21861;DHT22;11095;48.066;8.540;2023-04-25T12:33:17;11.30;99.90
21861;DHT22;11095;48.066;8.540;2023-04-25T12:35:43;11.00;99.90
21861;DHT22;11095;48.066;8.540;2023-04-25T12:38:09;10.80;99.90
21861;DHT22;11095;48.066;8.540;2023-04-25T12:40:34;10.70;99.90
21861;DHT22;11095;48.066;8.540;2023-04-25T12:43:00;10.60;99.90
21861;DHT22;11095;48.066;8.540;2023-04-25T12:45:25;10.80;99.90
21861;DHT22;11095;48.066;8.540;2023-04-25T12:47:51;10.80;99.90
21861;DHT22;11095;48.066;8.540;2023-04-25T12:50:17;11.00;99.90
21861;DHT22;11095;48.066;8.540;2023-04-25T12:52:42;11.20;99.90
21861;DHT22;11095;48.066;8.540;2023-04-25T12:55:08;11.20;99.90
21861;DHT22;11095;48.066;8.540;2023-04-25T12:57:33;11.30;99.90
21861;DHT22;11095;48.066;8.540;2023-04-25T12:59:59;11.20;99.90
21861;DHT22;11095;48.066;8.540;2023-04-25T13:02:25;11.30;99.90
21861;DHT22;11095;48.066;8.540;2023-04-25T13:04:51;11.70;99.90
21861;DHT22;11095;48.066;8.540;2023-04-25T13:07:17;11.80;99.90
21861;DHT22;11095;48.066;8.540;2023-04-25T13:09:42;11.50;99.90
21861;DHT22;11095;48.066;8.540;2023-04-25T13:12:08;10.90;99.90
21861;DHT22;11095;48.066;8.540;2023-04-25T13:14:34;11.20;99.90
21861;DHT22;11095;48.066;8.540;2023-04-25T13:16:59;11.40;99.90
21861;DHT22;11095;48.066;8.540;2023-04-25T13:19:25;11.70;99.90
21861;DHT22;11095;48.066;8.540;2023-04-25T13:21:51;11.00;99.90
21861;DHT22;11095;48.066;8.540;2023-04-25T13:24:17;11.00;99.90
21861;DHT22;11095;48.066;8.540;2023-04-25T13:26:43;11.20;99.90
21861;DHT22;11095;48.066;8.540;2023-04-25T13:29:09;10.10;99.90
21861;DHT22;11095;48.066;8.540;2023-04-25T13:31:34;10.00;99.90
21861;DHT22;11095;48.066;8.540;2023-04-25T13:34:00;10.20;99.90
21861;DHT22;11095;48.066;8.540;2023-04-25T13:36:26;10.60;99.90
21861;DHT22;11095;48.066;8.540;2023-04-25T13:38:51;11.00;99.90
21861;DHT22;11095;48.066;8.540;2023-04-25T13:41:17;10.90;99.90
21861;DHT22;11095;48.066;8.540;2023-04-25T13:43:45;10.80;99.90
21861;DHT22;11095;48.066;8.540;2023-04-25T13:46:12;10.50;99.90
21861;DHT22;11095;48.066;8.540;2023-04-25T13:48:39;10.70;99.90
21861;DHT22;11095;48.066;8.540;2023-04-25T13:51:04;10.90;99.90
21861;DHT22;11095;48.066;8.540;2023-04-25T13:53:30;11.10;99.90
21861;DHT22;11095;48.066;8.540;2023-04-25T13:55:56;11.20;99.90
21861;DHT22;11095;48.066;8.540;2023-04-25T13:58:21;11.20;99.90
21861;DHT22;11095;48.066;8.540;2023-04-25T14:00:47;11.40;99.90
21861;DHT22;11095;48.066;8.540;2023-04-25T14:03:13;11.50;99.90
21861;DHT22;11095;48.066;8.540;2023-04-25T14:05:38;11.50;99.90
21861;DHT22;11095;48.066;8.540;2023-04-25T14:08:09;11.60;99.90
21861;DHT22;11095;48.066;8.540;2023-04-25T14:10:35;11.70;99.90
21861;DHT22;11095;48.066;8.540;2023-04-25T14:13:01;11.70;99.90
21861;DHT22;11095;48.066;8.540;2023-04-25T14:15:28;11.70;99.90
21861;DHT22;11095;48.066;8.540;2023-04-25T14:17:54;11.70;99.90
21861;DHT22;11095;48.066;8.540;2023-04-25T14:20:20;11.50;99.90
21861;DHT22;11095;48.066;8.540;2023-04-25T14:22:46;11.40;99.90
21861;DHT22;11095;48.066;8.540;2023-04-25T14:25:12;11.30;99.90
21861;DHT22;11095;48.066;8.540;2023-04-25T14:27:38;11.40;99.90
21861;DHT22;11095;48.066;8.540;2023-04-25T14:30:04;11.50;99.90
21861;DHT22;11095;48.066;8.540;2023-04-25T14:32:30;11.60;99.90
21861;DHT22;11095;48.066;8.540;2023-04-25T14:34:57;11.70;99.90
21861;DHT22;11095;48.066;8.540;2023-04-25T14:37:23;11.80;99.90
21861;DHT22;11095;48.066;8.540;2023-04-25T14:39:48;11.90;99.90
21861;DHT22;11095;48.066;8.540;2023-04-25T14:42:14;11.90;99.90
21861;DHT22;11095;48.066;8.540;2023-04-25T14:44:40;12.00;99.90
21861;DHT22;11095;48.066;8.540;2023-04-25T14:47:05;12.20;99.90
21861;DHT22;11095;48.066;8.540;2023-04-25T14:49:32;12.10;99.90
21861;DHT22;11095;48.066;8.540;2023-04-25T14:51:57;12.10;99.90
21861;DHT22;11095;48.066;8.540;2023-04-25T14:54:23;12.00;99.90
21861;DHT22;11095;48.066;8.540;2023-04-25T14:56:49;12.10;99.90
21861;DHT22;11095;48.066;8.540;2023-04-25T14:59:15;12.30;99.90
21861;DHT22;11095;48.066;8.540;2023-04-25T15:01:40;12.50;99.90
21861;DHT22;11095;48.066;8.540;2023-04-25T15:04:06;12.70;99.90
21861;DHT22;11095;48.066;8.540;2023-04-25T15:06:33;13.00;99.90
21861;DHT22;11095;48.066;8.540;2023-04-25T15:08:58;13.30;99.90
21861;DHT22;11095;48.066;8.540;2023-04-25T15:11:24;13.20;99.90
21861;DHT22;11095;48.066;8.540;2023-04-25T15:13:50;13.20;99.90
21861;DHT22;11095;48.066;8.540;2023-04-25T15:16:15;13.40;99.90
21861;DHT22;11095;48.066;8.540;2023-04-25T15:18:41;13.50;99.90
21861;DHT22;11095;48.066;8.540;2023-04-25T15:21:07;13.60;99.90
21861;DHT22;11095;48.066;8.540;2023-04-25T15:23:32;13.30;99.90
21861;DHT22;11095;48.066;8.540;2023-04-25T15:25:58;13.40;99.90
21861;DHT22;11095;48.066;8.540;2023-04-25T15:28:23;13.40;99.90
21861;DHT22;11095;48.066;8.540;2023-04-25T15:30:50;13.50;99.90
21861;DHT22;11095;48.066;8.540;2023-04-25T15:33:15;13.40;99.90
21861;DHT22;11095;48.066;8.540;2023-04-25T15:35:41;12.90;99.90
21861;DHT22;11095;48.066;8.540;2023-04-25T15:38:08;11.20;99.90
21861;DHT22;11095;48.066;8.540;2023-04-25T15:40:35;10.40;99.90
21861;DHT22;11095;48.066;8.540;2023-04-25T15:43:01;9.60;99.90
21861;DHT22;11095;48.066;8.540;2023-04-25T15:45:27;9.20;99.90